createdAt,value
2023-03-04T01:44:57.476Z,1005.02
2023-03-04T01:44:58.011Z,1005.01
2023-03-04T01:45:08.256Z,1005.01
2023-03-04T01:45:18.502Z,1005.00
2023-03-04T01:45:28.765Z,1005.00
2023-03-04T01:45:40.237Z,1004.99
2023-03-04T01:45:49.277Z,1005.00
2023-03-04T01:46:00.485Z,1004.99
2023-03-04T01:46:09.932Z,1004.99
2023-03-04T01:46:20.246Z,1004.99
2023-03-04T01:46:30.535Z,1004.99
2023-03-04T01:46:40.816Z,1004.99
2023-03-04T01:46:51.064Z,1004.99
2023-03-04T01:47:01.301Z,1004.99
2023-03-04T01:47:11.549Z,1004.99
2023-03-04T01:47:21.794Z,1004.99
2023-03-04T01:47:32.041Z,1004.98
2023-03-04T01:47:42.285Z,1004.98
2023-03-04T01:47:52.541Z,1004.97
2023-03-04T01:48:02.789Z,1004.98
2023-03-04T01:48:13.040Z,1004.98
2023-03-04T01:48:23.270Z,1004.97
2023-03-04T01:48:33.519Z,1004.97
2023-03-04T01:48:43.783Z,1004.98
2023-03-04T01:48:54.167Z,1004.98
2023-03-04T01:49:04.455Z,1004.97
2023-03-04T01:49:14.706Z,1004.97
2023-03-04T01:49:24.919Z,1004.98
2023-03-04T01:49:35.174Z,1004.97
2023-03-04T01:49:45.429Z,1004.98
2023-03-04T01:49:55.677Z,1004.98
2023-03-04T01:50:05.960Z,1004.98
2023-03-04T01:50:16.204Z,1004.98
2023-03-04T01:50:26.456Z,1004.97
2023-03-04T01:50:36.700Z,1004.97
2023-03-04T01:50:46.952Z,1004.97
2023-03-04T01:50:57.200Z,1004.97
2023-03-04T01:51:07.456Z,1004.97
2023-03-04T01:51:17.687Z,1004.97
2023-03-04T01:51:28.450Z,1004.97
2023-03-04T01:51:38.291Z,1004.97
2023-03-04T01:51:48.508Z,1004.97
2023-03-04T01:51:58.763Z,1004.97
2023-03-04T01:52:08.998Z,1004.97
2023-03-04T01:52:19.251Z,1004.97
2023-03-04T01:52:29.502Z,1004.96
2023-03-04T01:52:41.899Z,1004.97
2023-03-04T01:52:52.119Z,1004.96
2023-03-04T01:53:00.282Z,1004.96
2023-03-04T01:53:10.519Z,1004.96
2023-03-04T01:53:20.768Z,1004.96
2023-03-04T01:53:31.012Z,1004.95
2023-03-04T01:53:41.264Z,1004.95
2023-03-04T01:53:51.502Z,1004.95
2023-03-04T01:54:01.764Z,1004.94
2023-03-04T01:54:12.005Z,1004.95
2023-03-04T01:54:22.250Z,1004.95
2023-03-04T01:54:32.492Z,1004.94
2023-03-04T01:54:42.741Z,1004.94
2023-03-04T01:54:52.988Z,1004.93
2023-03-04T01:55:03.237Z,1004.93
2023-03-04T01:55:13.486Z,1004.93
2023-03-04T01:55:23.790Z,1004.92
2023-03-04T01:55:34.014Z,1004.93
2023-03-04T01:55:44.252Z,1004.92
2023-03-04T01:55:54.496Z,1004.91
2023-03-04T01:56:04.744Z,1004.92
2023-03-04T01:56:15.003Z,1004.90
2023-03-04T01:56:25.248Z,1004.90
2023-03-04T01:56:35.510Z,1004.91
2023-03-04T01:56:45.768Z,1004.90
2023-03-04T01:56:56.006Z,1004.90
2023-03-04T01:57:06.246Z,1004.89
2023-03-04T01:57:16.488Z,1004.89
2023-03-04T01:57:26.737Z,1004.89
2023-03-04T01:57:37.041Z,1004.89
2023-03-04T01:57:47.279Z,1004.89
2023-03-04T01:57:57.535Z,1004.89
2023-03-04T01:58:07.785Z,1004.89
2023-03-04T01:58:18.030Z,1004.88
2023-03-04T01:58:28.270Z,1004.88
2023-03-04T01:58:38.514Z,1004.88
2023-03-04T01:58:48.761Z,1004.87
2023-03-04T01:58:59.004Z,1004.88
2023-03-04T01:59:09.300Z,1004.87
2023-03-04T01:59:19.527Z,1004.87
2023-03-04T02:00:10.431Z,1004.88
2023-03-04T02:00:20.653Z,1004.88
2023-03-04T02:00:30.919Z,1004.87
2023-03-04T02:00:41.147Z,1004.88
2023-03-04T02:00:51.384Z,1004.87
2023-03-04T02:01:01.634Z,1004.86
2023-03-04T02:01:11.936Z,1004.86
2023-03-04T02:01:22.189Z,1004.86
2023-03-04T02:01:32.484Z,1004.85
2023-03-04T02:01:42.721Z,1004.84
2023-03-04T02:01:53.081Z,1004.84
2023-03-04T02:02:03.291Z,1004.84
2023-03-04T02:02:13.531Z,1004.84
2023-03-04T02:02:23.775Z,1004.85
2023-03-04T02:02:34.028Z,1004.84
2023-03-04T02:02:44.270Z,1004.84
2023-03-04T02:02:54.504Z,1004.83
2023-03-04T02:03:04.747Z,1004.84
2023-03-04T02:03:14.992Z,1004.84
2023-03-04T02:03:25.235Z,1004.84
2023-03-04T02:03:35.484Z,1004.84
2023-03-04T02:03:45.724Z,1004.85
2023-03-04T02:03:56.053Z,1004.84
2023-03-04T02:04:06.359Z,1004.84
2023-03-04T02:04:16.636Z,1004.85
2023-03-04T02:04:27.023Z,1004.85
2023-03-04T02:04:37.382Z,1004.85
2023-03-04T02:04:47.651Z,1004.86
2023-03-04T02:04:57.873Z,1004.85
2023-03-04T02:05:08.131Z,1004.85
2023-03-04T02:05:18.376Z,1004.86
2023-03-04T02:05:28.619Z,1004.85
2023-03-04T02:05:38.863Z,1004.86
2023-03-04T02:05:49.110Z,1004.86
2023-03-04T02:05:59.360Z,1004.86
2023-03-04T02:06:09.607Z,1004.86
2023-03-04T02:06:19.843Z,1004.85
2023-03-04T02:06:30.089Z,1004.85
2023-03-04T02:06:40.342Z,1004.86
2023-03-04T02:06:50.757Z,1004.85
2023-03-04T02:07:01.030Z,1004.86
2023-03-04T02:07:11.246Z,1004.86
2023-03-04T02:07:21.489Z,1004.85
2023-03-04T02:07:31.744Z,1004.85
2023-03-04T02:07:42.000Z,1004.85
2023-03-04T02:07:52.218Z,1004.86
2023-03-04T02:08:02.466Z,1004.86
2023-03-04T02:08:12.721Z,1004.86
2023-03-04T02:08:22.959Z,1004.86
2023-03-04T02:08:33.196Z,1004.85
2023-03-04T02:08:43.439Z,1004.86
2023-03-04T02:08:53.689Z,1004.85
2023-03-04T02:09:03.939Z,1004.85
2023-03-04T02:09:14.179Z,1004.86
2023-03-04T02:09:24.425Z,1004.86
2023-03-04T02:09:34.671Z,1004.85
2023-03-04T02:09:44.908Z,1004.86
2023-03-04T02:09:55.157Z,1004.86
2023-03-04T02:10:05.419Z,1004.85
2023-03-04T02:10:15.659Z,1004.86
2023-03-04T02:10:25.911Z,1004.86
2023-03-04T02:10:36.146Z,1004.85
2023-03-04T02:10:46.403Z,1004.85
2023-03-04T02:10:56.638Z,1004.85
2023-03-04T02:11:06.898Z,1004.85
2023-03-04T02:11:17.140Z,1004.85
2023-03-04T02:11:27.388Z,1004.85
2023-03-04T02:11:37.635Z,1004.85
2023-03-04T02:11:47.877Z,1004.85
2023-03-04T02:11:58.115Z,1004.86
2023-03-04T02:12:08.379Z,1004.85
2023-03-04T02:12:18.634Z,1004.85
2023-03-04T02:12:28.906Z,1004.84
2023-03-04T02:12:39.138Z,1004.85
2023-03-04T02:12:49.377Z,1004.85
2023-03-04T02:12:59.620Z,1004.85
2023-03-04T02:13:09.896Z,1004.85
2023-03-04T02:13:20.132Z,1004.85
2023-03-04T02:13:30.372Z,1004.85
2023-03-04T02:13:40.619Z,1004.85
2023-03-04T02:13:50.859Z,1004.85
2023-03-04T02:14:01.114Z,1004.85
2023-03-04T02:14:11.352Z,1004.85
2023-03-04T02:14:21.620Z,1004.85
2023-03-04T02:14:31.852Z,1004.85
2023-03-04T02:14:42.107Z,1004.85
2023-03-04T02:14:52.350Z,1004.85
2023-03-04T02:15:02.609Z,1004.85
2023-03-04T02:15:12.875Z,1004.85
2023-03-04T02:15:23.093Z,1004.86
2023-03-04T02:15:33.337Z,1004.86
2023-03-04T02:15:43.657Z,1004.86
2023-03-04T02:15:53.885Z,1004.85
2023-03-04T02:16:04.141Z,1004.86
2023-03-04T02:16:14.408Z,1004.87
2023-03-04T02:16:24.734Z,1004.87
2023-03-04T02:16:35.045Z,1004.86
2023-03-04T02:16:45.267Z,1004.86
2023-03-04T02:16:55.509Z,1004.86
2023-03-04T02:17:05.762Z,1004.86
2023-03-04T02:17:15.990Z,1004.87
2023-03-04T02:17:26.294Z,1004.87
2023-03-04T02:17:36.526Z,1004.87
2023-03-04T02:17:46.781Z,1004.87
2023-03-04T02:17:57.042Z,1004.87
2023-03-04T02:18:07.286Z,1004.87
2023-03-04T02:18:17.592Z,1004.87
2023-03-04T02:18:27.833Z,1004.88
2023-03-04T02:18:38.062Z,1004.87
2023-03-04T02:18:48.332Z,1004.87
2023-03-04T02:18:58.575Z,1004.87
2023-03-04T02:19:08.823Z,1004.86
2023-03-04T02:19:19.110Z,1004.86
2023-03-04T02:19:29.328Z,1004.87
2023-03-04T02:19:39.572Z,1004.87
2023-03-04T02:19:49.823Z,1004.86
2023-03-04T02:20:00.096Z,1004.86
2023-03-04T02:20:10.342Z,1004.86
2023-03-04T02:20:20.595Z,1004.85
2023-03-04T02:20:30.838Z,1004.86
2023-03-04T02:20:41.120Z,1004.87
2023-03-04T02:20:51.368Z,1004.86
2023-03-04T02:21:01.609Z,1004.86
2023-03-04T02:21:11.870Z,1004.86
2023-03-04T02:21:22.116Z,1004.86
2023-03-04T02:21:32.372Z,1004.85
2023-03-04T02:21:42.628Z,1004.86
2023-03-04T02:21:52.881Z,1004.86
2023-03-04T02:22:03.129Z,1004.85
2023-03-04T02:22:13.370Z,1004.85
2023-03-04T02:22:23.653Z,1004.86
2023-03-04T02:22:33.941Z,1004.85
2023-03-04T02:22:44.155Z,1004.86
2023-03-04T02:22:54.415Z,1004.83
2023-03-04T02:23:04.637Z,1004.84
2023-03-04T02:23:14.896Z,1004.85
2023-03-04T02:23:25.154Z,1004.85
2023-03-04T02:23:35.391Z,1004.84
2023-03-04T02:23:45.635Z,1004.84
2023-03-04T02:23:55.876Z,1004.84
2023-03-04T02:24:06.124Z,1004.84
2023-03-04T02:24:16.378Z,1004.84
2023-03-04T02:24:26.630Z,1004.85
2023-03-04T02:24:36.868Z,1004.84
2023-03-04T02:24:47.110Z,1004.84
2023-03-04T02:24:57.357Z,1004.84
2023-03-04T02:25:07.620Z,1004.84
2023-03-04T02:25:17.887Z,1004.83
2023-03-04T02:25:28.139Z,1004.84
2023-03-04T02:25:38.370Z,1004.84
2023-03-04T02:25:48.608Z,1004.84
2023-03-04T02:25:58.858Z,1004.84
2023-03-04T02:26:09.111Z,1004.84
2023-03-04T02:26:19.379Z,1004.85
2023-03-04T02:26:29.609Z,1004.84
2023-03-04T02:26:39.849Z,1004.84
2023-03-04T02:26:50.100Z,1004.85
2023-03-04T02:27:00.360Z,1004.85
2023-03-04T02:27:10.587Z,1004.85
2023-03-04T02:27:22.104Z,1004.85
2023-03-04T02:27:31.159Z,1004.85
2023-03-04T02:27:41.410Z,1004.85
2023-03-04T02:27:51.655Z,1004.85
2023-03-04T02:28:01.917Z,1004.85
2023-03-04T02:28:12.146Z,1004.85
2023-03-04T02:28:22.395Z,1004.85
2023-03-04T02:28:32.631Z,1004.86
2023-03-04T02:28:42.889Z,1004.86
2023-03-04T02:28:53.120Z,1004.85
2023-03-04T02:29:03.364Z,1004.86
2023-03-04T02:29:13.614Z,1004.86
2023-03-04T02:29:23.882Z,1004.85
2023-03-04T02:29:34.111Z,1004.86
2023-03-04T02:29:44.358Z,1004.85
2023-03-04T02:29:54.603Z,1004.85
2023-03-04T02:30:04.869Z,1004.85
2023-03-04T02:30:15.127Z,1004.84
2023-03-04T02:30:25.392Z,1004.83
2023-03-04T02:30:35.616Z,1004.82
2023-03-04T02:30:45.865Z,1004.82
2023-03-04T02:30:56.136Z,1004.82
2023-03-04T02:31:06.370Z,1004.82
2023-03-04T02:31:16.639Z,1004.82
2023-03-04T02:31:26.904Z,1004.83
2023-03-04T02:31:37.230Z,1004.82
2023-03-04T02:31:47.441Z,1004.82
2023-03-04T02:31:57.739Z,1004.82
2023-03-04T02:32:08.038Z,1004.81
2023-03-04T02:32:18.304Z,1004.81
2023-03-04T02:32:28.552Z,1004.81
2023-03-04T02:32:38.985Z,1004.80
2023-03-04T02:32:49.216Z,1004.80
2023-03-04T02:32:59.454Z,1004.80
2023-03-04T02:33:09.705Z,1004.80
2023-03-04T02:33:19.948Z,1004.80
2023-03-04T02:33:30.192Z,1004.80
2023-03-04T02:33:40.440Z,1004.80
2023-03-04T02:33:50.690Z,1004.80
2023-03-04T02:34:00.947Z,1004.81
2023-03-04T02:34:11.179Z,1004.81
2023-03-04T02:34:21.416Z,1004.81
2023-03-04T02:34:31.662Z,1004.81
2023-03-04T02:34:41.909Z,1004.81
2023-03-04T02:34:52.156Z,1004.79
2023-03-04T02:35:02.396Z,1004.80
2023-03-04T02:35:12.638Z,1004.80
2023-03-04T02:35:22.917Z,1004.80
2023-03-04T02:35:33.258Z,1004.79
2023-03-04T02:35:43.548Z,1004.79
2023-03-04T02:35:53.797Z,1004.79
2023-03-04T02:36:04.026Z,1004.79
2023-03-04T02:36:14.273Z,1004.79
2023-03-04T02:36:24.523Z,1004.78
2023-03-04T02:36:34.776Z,1004.78
2023-03-04T02:36:45.047Z,1004.76
2023-03-04T02:36:55.293Z,1004.76
2023-03-04T02:37:05.528Z,1004.76
2023-03-04T02:37:15.763Z,1004.76
2023-03-04T02:37:26.026Z,1004.76
2023-03-04T02:37:36.306Z,1004.76
2023-03-04T02:37:46.560Z,1004.76
2023-03-04T02:37:56.821Z,1004.77
2023-03-04T02:38:07.078Z,1004.77
2023-03-04T02:38:17.350Z,1004.76
2023-03-04T02:38:27.581Z,1004.76
2023-03-04T02:38:37.815Z,1004.76
2023-03-04T02:38:48.062Z,1004.76
2023-03-04T02:38:58.388Z,1004.76
2023-03-04T02:39:08.755Z,1004.75
2023-03-04T02:39:19.047Z,1004.75
2023-03-04T02:39:29.265Z,1004.76
2023-03-04T02:39:39.518Z,1004.76
2023-03-04T02:39:49.772Z,1004.76
2023-03-04T02:40:00.016Z,1004.76
2023-03-04T02:40:10.262Z,1004.76
2023-03-04T02:40:20.527Z,1004.75
2023-03-04T02:40:30.770Z,1004.75
2023-03-04T02:40:41.020Z,1004.75
2023-03-04T02:40:51.259Z,1004.75
2023-03-04T02:41:01.612Z,1004.75
2023-03-04T02:41:11.848Z,1004.75
2023-03-04T02:41:22.097Z,1004.76
2023-03-04T02:41:32.343Z,1004.76
2023-03-04T02:41:44.532Z,1004.76
2023-03-04T02:41:52.949Z,1004.76
2023-03-04T02:42:03.197Z,1004.76
2023-03-04T02:42:13.412Z,1004.76
2023-03-04T02:42:23.658Z,1004.76
2023-03-04T02:42:33.919Z,1004.76
2023-03-04T02:42:44.186Z,1004.76
2023-03-04T02:42:54.476Z,1004.76
2023-03-04T02:43:04.705Z,1004.76
2023-03-04T02:43:14.947Z,1004.76
2023-03-04T02:43:25.208Z,1004.76
2023-03-04T02:43:35.449Z,1004.75
2023-03-04T02:43:45.691Z,1004.75
2023-03-04T02:43:55.938Z,1004.75
2023-03-04T02:44:06.186Z,1004.75
2023-03-04T02:44:16.434Z,1004.76
2023-03-04T02:44:26.675Z,1004.76
2023-03-04T02:44:36.925Z,1004.76
2023-03-04T02:44:47.168Z,1004.75
2023-03-04T02:44:57.407Z,1004.75
2023-03-04T02:45:07.663Z,1004.75
2023-03-04T02:45:17.906Z,1004.75
2023-03-04T02:45:28.185Z,1004.74
2023-03-04T02:45:38.410Z,1004.74
2023-03-04T02:45:48.653Z,1004.74
2023-03-04T02:45:58.899Z,1004.73
2023-03-04T02:46:09.194Z,1004.73
2023-03-04T02:46:19.438Z,1004.73
2023-03-04T02:46:29.717Z,1004.73
2023-03-04T02:46:40.005Z,1004.73
2023-03-04T02:46:50.483Z,1004.73
2023-03-04T02:47:00.750Z,1004.72
2023-03-04T02:47:11.004Z,1004.72
2023-03-04T02:47:21.245Z,1004.72
2023-03-04T02:47:31.495Z,1004.72
2023-03-04T02:47:41.748Z,1004.72
2023-03-04T02:47:52.010Z,1004.71
2023-03-04T02:48:02.282Z,1004.71
2023-03-04T02:48:12.553Z,1004.71
2023-03-04T02:48:22.772Z,1004.71
2023-03-04T02:48:33.004Z,1004.71
2023-03-04T02:48:43.256Z,1004.71
2023-03-04T02:48:53.512Z,1004.71
2023-03-04T02:49:03.747Z,1004.71
2023-03-04T02:49:13.999Z,1004.71
2023-03-04T02:49:24.252Z,1004.70
2023-03-04T02:49:34.479Z,1004.71
2023-03-04T02:49:44.725Z,1004.71
2023-03-04T02:49:54.966Z,1004.71
2023-03-04T02:50:05.209Z,1004.70
2023-03-04T02:50:15.479Z,1004.70
2023-03-04T02:50:25.870Z,1004.70
2023-03-04T02:50:36.113Z,1004.70
2023-03-04T02:50:46.378Z,1004.70
2023-03-04T02:50:56.610Z,1004.70
2023-03-04T02:51:06.853Z,1004.69
2023-03-04T02:51:17.113Z,1004.69
2023-03-04T02:51:27.342Z,1004.69
2023-03-04T02:51:37.588Z,1004.69
2023-03-04T02:51:47.835Z,1004.70
2023-03-04T02:51:58.077Z,1004.69
2023-03-04T02:52:08.328Z,1004.69
2023-03-04T02:52:18.573Z,1004.69
2023-03-04T02:52:28.806Z,1004.69
2023-03-04T02:52:39.054Z,1004.68
2023-03-04T02:52:49.317Z,1004.68
2023-03-04T02:52:59.540Z,1004.68
2023-03-04T02:53:09.789Z,1004.68
2023-03-04T02:53:20.038Z,1004.68
2023-03-04T02:53:30.289Z,1004.68
2023-03-04T02:53:40.538Z,1004.68
2023-03-04T02:53:50.782Z,1004.68
2023-03-04T02:54:01.037Z,1004.68
2023-03-04T02:54:11.281Z,1004.68
2023-03-04T02:54:21.530Z,1004.67
2023-03-04T02:54:31.784Z,1004.67
2023-03-04T02:54:42.035Z,1004.67
2023-03-04T02:54:52.274Z,1004.67
2023-03-04T02:55:02.528Z,1004.67
2023-03-04T02:55:12.822Z,1004.67
2023-03-04T02:55:23.075Z,1004.67
2023-03-04T02:55:33.311Z,1004.67
2023-03-04T02:55:43.559Z,1004.67
2023-03-04T02:55:53.793Z,1004.67
2023-03-04T02:56:04.043Z,1004.67
2023-03-04T02:56:14.287Z,1004.67
2023-03-04T02:56:24.533Z,1004.67
2023-03-04T02:56:34.772Z,1004.67
2023-03-04T02:56:45.017Z,1004.66
2023-03-04T02:56:55.280Z,1004.66
2023-03-04T02:57:05.507Z,1004.65
2023-03-04T02:57:15.764Z,1004.66
2023-03-04T02:57:26.001Z,1004.66
2023-03-04T02:57:36.243Z,1004.66
2023-03-04T02:57:46.489Z,1004.66
2023-03-04T02:57:56.729Z,1004.66
2023-03-04T02:58:06.976Z,1004.65
2023-03-04T02:58:17.221Z,1004.65
2023-03-04T02:58:27.464Z,1004.65
2023-03-04T02:58:37.709Z,1004.65
2023-03-04T02:58:47.980Z,1004.64
2023-03-04T02:58:58.198Z,1004.64
2023-03-04T02:59:08.439Z,1004.65
2023-03-04T02:59:18.681Z,1004.65
2023-03-04T02:59:28.952Z,1004.65
2023-03-04T02:59:39.170Z,1004.64
2023-03-04T02:59:49.415Z,1004.64
2023-03-04T02:59:59.659Z,1004.64
2023-03-04T03:00:09.919Z,1004.63
2023-03-04T03:00:20.171Z,1004.63
2023-03-04T03:00:30.411Z,1004.62
2023-03-04T03:00:40.696Z,1004.62
2023-03-04T03:00:50.900Z,1004.62
2023-03-04T03:01:01.147Z,1004.62
2023-03-04T03:01:11.391Z,1004.62
2023-03-04T03:01:21.654Z,1004.62
2023-03-04T03:01:31.899Z,1004.62
2023-03-04T03:01:42.217Z,1004.61
2023-03-04T03:01:52.505Z,1004.61
2023-03-04T03:02:02.795Z,1004.61
2023-03-04T03:02:13.059Z,1004.61
2023-03-04T03:02:23.322Z,1004.61
2023-03-04T03:02:33.633Z,1004.60
2023-03-04T03:02:43.900Z,1004.60
2023-03-04T03:02:54.138Z,1004.59
2023-03-04T03:03:04.433Z,1004.59
2023-03-04T03:03:14.718Z,1004.59
2023-03-04T03:03:24.978Z,1004.59
2023-03-04T03:03:35.230Z,1004.59
2023-03-04T03:03:45.494Z,1004.59
2023-03-04T03:03:55.736Z,1004.58
2023-03-04T03:04:05.970Z,1004.58
2023-03-04T03:04:16.231Z,1004.58
2023-03-04T03:04:26.469Z,1004.58
2023-03-04T03:04:36.732Z,1004.57
2023-03-04T03:04:46.966Z,1004.57
2023-03-04T03:04:57.205Z,1004.58
2023-03-04T03:05:07.505Z,1004.58
2023-03-04T03:05:17.746Z,1004.58
2023-03-04T03:05:27.981Z,1004.58
2023-03-04T03:05:38.234Z,1004.58
2023-03-04T03:05:48.496Z,1004.57
2023-03-04T03:05:58.752Z,1004.58
2023-03-04T03:06:08.996Z,1004.57
2023-03-04T03:06:19.245Z,1004.56
2023-03-04T03:06:29.509Z,1004.57
2023-03-04T03:06:39.732Z,1004.57
2023-03-04T03:06:49.997Z,1004.58
2023-03-04T03:07:00.259Z,1004.58
2023-03-04T03:07:10.486Z,1004.57
2023-03-04T03:07:20.750Z,1004.57
2023-03-04T03:07:30.981Z,1004.57
2023-03-04T03:07:41.225Z,1004.58
2023-03-04T03:07:51.496Z,1004.58
2023-03-04T03:08:01.727Z,1004.57
2023-03-04T03:08:11.989Z,1004.58
2023-03-04T03:08:22.229Z,1004.58
2023-03-04T03:08:32.493Z,1004.57
2023-03-04T03:08:42.726Z,1004.57
2023-03-04T03:08:52.963Z,1004.57
2023-03-04T03:09:03.229Z,1004.57
2023-03-04T03:09:13.470Z,1004.57
2023-03-04T03:09:23.712Z,1004.57
2023-03-04T03:09:33.955Z,1004.57
2023-03-04T03:09:44.200Z,1004.57
2023-03-04T03:09:54.444Z,1004.57
2023-03-04T03:10:04.690Z,1004.57
2023-03-04T03:10:14.950Z,1004.57
2023-03-04T03:10:25.190Z,1004.57
2023-03-04T03:10:35.448Z,1004.58
2023-03-04T03:10:45.678Z,1004.57
2023-03-04T03:10:55.941Z,1004.58
2023-03-04T03:11:07.721Z,1004.58
2023-03-04T03:11:16.422Z,1004.59
2023-03-04T03:11:26.858Z,1004.60
2023-03-04T03:11:37.069Z,1004.60
2023-03-04T03:11:47.311Z,1004.60
2023-03-04T03:11:57.550Z,1004.60
2023-03-04T03:12:07.828Z,1004.60
2023-03-04T03:12:18.059Z,1004.60
2023-03-04T03:12:28.330Z,1004.60
2023-03-04T03:12:38.562Z,1004.59
2023-03-04T03:12:48.801Z,1004.59
2023-03-04T03:12:59.068Z,1004.59
2023-03-04T03:13:09.330Z,1004.59
2023-03-04T03:13:19.562Z,1004.59
2023-03-04T03:13:29.818Z,1004.59
2023-03-04T03:13:40.052Z,1004.58
2023-03-04T03:13:50.297Z,1004.58
2023-03-04T03:14:00.542Z,1004.58
2023-03-04T03:14:10.777Z,1004.58
2023-03-04T03:14:21.023Z,1004.58
2023-03-04T03:14:31.271Z,1004.58
2023-03-04T03:14:41.517Z,1004.59
2023-03-04T03:14:51.758Z,1004.59
2023-03-04T03:15:02.002Z,1004.59
2023-03-04T03:15:12.246Z,1004.58
2023-03-04T03:15:22.491Z,1004.58
2023-03-04T03:15:32.734Z,1004.58
2023-03-04T03:15:42.978Z,1004.58
2023-03-04T03:15:53.270Z,1004.59
2023-03-04T03:16:03.536Z,1004.58
2023-03-04T03:16:13.819Z,1004.58
2023-03-04T03:16:24.113Z,1004.57
2023-03-04T03:16:34.421Z,1004.57
2023-03-04T03:16:44.690Z,1004.58
2023-03-04T03:16:54.930Z,1004.58
2023-03-04T03:17:05.195Z,1004.58
2023-03-04T03:17:15.429Z,1004.58
2023-03-04T03:17:25.675Z,1004.57
2023-03-04T03:17:35.925Z,1004.57
2023-03-04T03:17:46.163Z,1004.57
2023-03-04T03:17:56.432Z,1004.57
2023-03-04T03:18:06.676Z,1004.56
2023-03-04T03:18:16.924Z,1004.56
2023-03-04T03:18:27.167Z,1004.55
2023-03-04T03:18:37.415Z,1004.55
2023-03-04T03:18:47.658Z,1004.55
2023-03-04T03:18:57.899Z,1004.54
2023-03-04T03:19:08.157Z,1004.54
2023-03-04T03:19:18.385Z,1004.53
2023-03-04T03:19:28.633Z,1004.53
2023-03-04T03:19:38.874Z,1004.53
2023-03-04T03:19:49.117Z,1004.53
2023-03-04T03:19:59.362Z,1004.52
2023-03-04T03:20:09.626Z,1004.52
2023-03-04T03:20:19.862Z,1004.52
2023-03-04T03:20:30.107Z,1004.52
2023-03-04T03:20:40.351Z,1004.52
2023-03-04T03:20:50.621Z,1004.51
2023-03-04T03:21:00.845Z,1004.51
2023-03-04T03:21:11.083Z,1004.52
2023-03-04T03:21:21.348Z,1004.51
2023-03-04T03:21:31.583Z,1004.51
2023-03-04T03:21:41.829Z,1004.51
2023-03-04T03:21:52.073Z,1004.51
2023-03-04T03:22:02.305Z,1004.51
2023-03-04T03:22:12.566Z,1004.50
2023-03-04T03:22:22.827Z,1004.50
2023-03-04T03:22:33.053Z,1004.49
2023-03-04T03:22:43.317Z,1004.49
2023-03-04T03:22:53.584Z,1004.49
2023-03-04T03:23:03.814Z,1004.48
2023-03-04T03:23:14.062Z,1004.48
2023-03-04T03:23:24.305Z,1004.47
2023-03-04T03:23:34.548Z,1004.47
2023-03-04T03:23:44.821Z,1004.47
2023-03-04T03:23:55.071Z,1004.47
2023-03-04T03:24:05.308Z,1004.47
2023-03-04T03:24:15.552Z,1004.46
2023-03-04T03:24:25.807Z,1004.46
2023-03-04T03:24:36.059Z,1004.46
2023-03-04T03:24:46.294Z,1004.46
2023-03-04T03:24:56.541Z,1004.46
2023-03-04T03:25:06.800Z,1004.45
2023-03-04T03:25:17.051Z,1004.46
2023-03-04T03:25:27.284Z,1004.46
2023-03-04T03:25:37.547Z,1004.46
2023-03-04T03:25:47.778Z,1004.46
2023-03-04T03:25:58.021Z,1004.46
2023-03-04T03:26:08.270Z,1004.47
2023-03-04T03:26:18.516Z,1004.46
2023-03-04T03:26:28.755Z,1004.46
2023-03-04T03:26:38.998Z,1004.46
2023-03-04T03:26:49.255Z,1004.46
2023-03-04T03:26:59.483Z,1004.45
2023-03-04T03:27:09.728Z,1004.45
2023-03-04T03:27:19.986Z,1004.45
2023-03-04T03:27:30.215Z,1004.44
2023-03-04T03:27:40.464Z,1004.44
2023-03-04T03:27:50.709Z,1004.44
2023-03-04T03:28:01.129Z,1004.44
2023-03-04T03:28:11.362Z,1004.43
2023-03-04T03:28:21.606Z,1004.43
2023-03-04T03:28:31.859Z,1004.42
2023-03-04T03:28:42.097Z,1004.41
2023-03-04T03:28:52.362Z,1004.41
2023-03-04T03:29:02.591Z,1004.40
2023-03-04T03:29:12.832Z,1004.40
2023-03-04T03:29:23.082Z,1004.40
2023-03-04T03:29:33.316Z,1004.41
2023-03-04T03:29:43.562Z,1004.41
2023-03-04T03:29:53.804Z,1004.41
2023-03-04T03:30:04.062Z,1004.41
2023-03-04T03:30:14.313Z,1004.41
2023-03-04T03:30:24.556Z,1004.40
2023-03-04T03:30:34.808Z,1004.40
2023-03-04T03:30:45.046Z,1004.39
2023-03-04T03:30:55.312Z,1004.39
2023-03-04T03:31:05.543Z,1004.39
2023-03-04T03:31:15.838Z,1004.38
2023-03-04T03:31:26.122Z,1004.38
2023-03-04T03:31:36.353Z,1004.38
2023-03-04T03:31:46.607Z,1004.38
2023-03-04T03:31:57.073Z,1004.38
2023-03-04T03:32:07.291Z,1004.37
2023-03-04T03:32:17.579Z,1004.37
2023-03-04T03:32:27.867Z,1004.37
2023-03-04T03:32:38.136Z,1004.37
2023-03-04T03:32:48.368Z,1004.37
2023-03-04T03:32:58.604Z,1004.37
2023-03-04T03:33:08.865Z,1004.37
2023-03-04T03:33:19.117Z,1004.37
2023-03-04T03:33:29.372Z,1004.36
2023-03-04T03:33:39.601Z,1004.36
2023-03-04T03:33:49.846Z,1004.36
2023-03-04T03:34:00.116Z,1004.35
2023-03-04T03:34:10.338Z,1004.36
2023-03-04T03:34:20.582Z,1004.36
2023-03-04T03:34:30.826Z,1004.36
2023-03-04T03:34:41.077Z,1004.36
2023-03-04T03:34:51.315Z,1004.36
2023-03-04T03:35:01.566Z,1004.36
2023-03-04T03:35:11.817Z,1004.35
2023-03-04T03:35:22.091Z,1004.36
2023-03-04T03:35:32.368Z,1004.35
2023-03-04T03:35:42.620Z,1004.36
2023-03-04T03:35:52.977Z,1004.36
2023-03-04T03:36:03.382Z,1004.37
2023-03-04T03:36:13.469Z,1004.37
2023-03-04T03:36:23.737Z,1004.37
2023-03-04T03:36:33.992Z,1004.36
2023-03-04T03:36:44.200Z,1004.36
2023-03-04T03:36:54.450Z,1004.36
2023-03-04T03:37:04.687Z,1004.36
2023-03-04T03:37:14.926Z,1004.35
2023-03-04T03:37:25.172Z,1004.35
2023-03-04T03:37:35.419Z,1004.35
2023-03-04T03:37:45.661Z,1004.34
2023-03-04T03:37:55.915Z,1004.34
2023-03-04T03:38:06.177Z,1004.34
2023-03-04T03:38:16.430Z,1004.34
2023-03-04T03:38:26.669Z,1004.34
2023-03-04T03:38:36.913Z,1004.34
2023-03-04T03:38:47.156Z,1004.34
2023-03-04T03:38:57.426Z,1004.34
2023-03-04T03:39:07.650Z,1004.34
2023-03-04T03:39:17.887Z,1004.34
2023-03-04T03:39:28.132Z,1004.35
2023-03-04T03:39:38.379Z,1004.35
2023-03-04T03:39:48.625Z,1004.35
2023-03-04T03:39:58.875Z,1004.35
2023-03-04T03:40:09.135Z,1004.34
2023-03-04T03:40:19.384Z,1004.34
2023-03-04T03:40:29.626Z,1004.34
2023-03-04T03:40:39.877Z,1004.33
2023-03-04T03:40:50.111Z,1004.33
2023-03-04T03:41:00.357Z,1004.33
2023-03-04T03:41:10.605Z,1004.33
2023-03-04T03:41:20.857Z,1004.33
2023-03-04T03:41:31.096Z,1004.32
2023-03-04T03:41:41.347Z,1004.32
2023-03-04T03:41:51.584Z,1004.32
2023-03-04T03:42:01.824Z,1004.32
2023-03-04T03:42:12.067Z,1004.32
2023-03-04T03:42:22.312Z,1004.32
2023-03-04T03:42:32.554Z,1004.32
2023-03-04T03:42:42.804Z,1004.32
2023-03-04T03:42:53.053Z,1004.32
2023-03-04T03:43:03.306Z,1004.32
2023-03-04T03:43:13.531Z,1004.32
2023-03-04T03:43:23.775Z,1004.32
2023-03-04T03:43:34.030Z,1004.31
2023-03-04T03:43:44.297Z,1004.32
2023-03-04T03:43:54.515Z,1004.32
2023-03-04T03:44:04.766Z,1004.32
2023-03-04T03:44:15.000Z,1004.32
2023-03-04T03:44:25.244Z,1004.32
2023-03-04T03:44:35.488Z,1004.32
2023-03-04T03:44:45.733Z,1004.32
2023-03-04T03:44:56.034Z,1004.31
2023-03-04T03:45:06.264Z,1004.31
2023-03-04T03:45:16.528Z,1004.32
2023-03-04T03:45:26.819Z,1004.32
2023-03-04T03:45:37.078Z,1004.33
2023-03-04T03:45:47.428Z,1004.32
2023-03-04T03:45:57.684Z,1004.33
2023-03-04T03:46:08.012Z,1004.32
2023-03-04T03:46:18.262Z,1004.33
2023-03-04T03:46:28.506Z,1004.33
2023-03-04T03:46:38.753Z,1004.33
2023-03-04T03:46:49.007Z,1004.34
2023-03-04T03:46:59.241Z,1004.33
2023-03-04T03:47:09.487Z,1004.34
2023-03-04T03:47:19.733Z,1004.34
2023-03-04T03:47:29.983Z,1004.34
2023-03-04T03:47:40.219Z,1004.34
2023-03-04T03:47:50.467Z,1004.34
2023-03-04T03:48:00.713Z,1004.34
2023-03-04T03:48:10.958Z,1004.33
2023-03-04T03:48:21.205Z,1004.32
2023-03-04T03:48:31.451Z,1004.32
2023-03-04T03:48:41.696Z,1004.32
2023-03-04T03:48:51.937Z,1004.33
2023-03-04T03:49:02.182Z,1004.33
2023-03-04T03:49:12.426Z,1004.32
2023-03-04T03:49:22.672Z,1004.32